sensor_id;sensor_type;location;lat;lon;timestamp;P1;durP1;ratioP1;P2;durP2;ratioP2
44810;SDS011;30526;52.184;4.476;2022-09-01T00:01:49;5.18;;;1.63;;
44810;SDS011;30526;52.184;4.476;2022-09-01T00:04:18;1.85;;;1.17;;
44810;SDS011;30526;52.184;4.476;2022-09-01T00:06:45;5.10;;;1.40;;
44810;SDS011;30526;52.184;4.476;2022-09-01T00:09:14;4.32;;;1.35;;
44810;SDS011;30526;52.184;4.476;2022-09-01T00:11:41;3.60;;;1.27;;
44810;SDS011;30526;52.184;4.476;2022-09-01T00:14:08;4.40;;;1.98;;
44810;SDS011;30526;52.184;4.476;2022-09-01T00:19:01;2.75;;;1.10;;
44810;SDS011;30526;52.184;4.476;2022-09-01T00:21:29;5.28;;;1.40;;
44810;SDS011;30526;52.184;4.476;2022-09-01T00:23:55;4.05;;;1.60;;
44810;SDS011;30526;52.184;4.476;2022-09-01T00:26:21;4.32;;;1.30;;
44810;SDS011;30526;52.184;4.476;2022-09-01T00:28:48;5.03;;;1.40;;
44810;SDS011;30526;52.184;4.476;2022-09-01T00:31:14;6.57;;;1.42;;
44810;SDS011;30526;52.184;4.476;2022-09-01T00:33:41;9.07;;;1.55;;
44810;SDS011;30526;52.184;4.476;2022-09-01T00:36:07;3.38;;;1.75;;
44810;SDS011;30526;52.184;4.476;2022-09-01T00:38:33;5.07;;;1.48;;
44810;SDS011;30526;52.184;4.476;2022-09-01T00:40:59;2.20;;;1.50;;
44810;SDS011;30526;52.184;4.476;2022-09-01T00:43:36;6.45;;;1.45;;
44810;SDS011;30526;52.184;4.476;2022-09-01T00:46:03;2.72;;;1.13;;
44810;SDS011;30526;52.184;4.476;2022-09-01T00:48:29;2.38;;;1.55;;
44810;SDS011;30526;52.184;4.476;2022-09-01T00:50:56;3.78;;;1.73;;
44810;SDS011;30526;52.184;4.476;2022-09-01T00:53:22;4.95;;;3.15;;
44810;SDS011;30526;52.184;4.476;2022-09-01T00:55:48;4.13;;;2.30;;
44810;SDS011;30526;52.184;4.476;2022-09-01T00:58:14;4.72;;;1.92;;
44810;SDS011;30526;52.184;4.476;2022-09-01T01:00:40;1.98;;;1.45;;
44810;SDS011;30526;52.184;4.476;2022-09-01T01:03:08;3.10;;;1.80;;
44810;SDS011;30526;52.184;4.476;2022-09-01T01:05:35;6.93;;;1.90;;
44810;SDS011;30526;52.184;4.476;2022-09-01T01:08:04;3.85;;;1.70;;
44810;SDS011;30526;52.184;4.476;2022-09-01T01:10:32;5.65;;;2.20;;
44810;SDS011;30526;52.184;4.476;2022-09-01T01:12:59;3.67;;;1.60;;
44810;SDS011;30526;52.184;4.476;2022-09-01T01:15:27;4.20;;;2.08;;
44810;SDS011;30526;52.184;4.476;2022-09-01T01:17:53;3.15;;;1.85;;
44810;SDS011;30526;52.184;4.476;2022-09-01T01:20:20;4.95;;;1.80;;
44810;SDS011;30526;52.184;4.476;2022-09-01T01:23:12;3.45;;;1.70;;
44810;SDS011;30526;52.184;4.476;2022-09-01T01:25:45;3.50;;;1.70;;
44810;SDS011;30526;52.184;4.476;2022-09-01T01:28:17;7.05;;;2.30;;
44810;SDS011;30526;52.184;4.476;2022-09-01T01:30:45;5.88;;;2.40;;
44810;SDS011;30526;52.184;4.476;2022-09-01T01:33:14;6.03;;;1.98;;
44810;SDS011;30526;52.184;4.476;2022-09-01T01:35:44;4.05;;;2.20;;
44810;SDS011;30526;52.184;4.476;2022-09-01T01:38:11;3.17;;;1.92;;
44810;SDS011;30526;52.184;4.476;2022-09-01T01:40:39;7.03;;;2.08;;
44810;SDS011;30526;52.184;4.476;2022-09-01T01:43:06;6.82;;;2.35;;
44810;SDS011;30526;52.184;4.476;2022-09-01T01:45:32;2.57;;;1.93;;
44810;SDS011;30526;52.184;4.476;2022-09-01T01:47:59;4.05;;;2.13;;
44810;SDS011;30526;52.184;4.476;2022-09-01T01:50:30;3.40;;;2.28;;
44810;SDS011;30526;52.184;4.476;2022-09-01T01:52:58;3.38;;;1.95;;
44810;SDS011;30526;52.184;4.476;2022-09-01T01:55:25;9.60;;;2.47;;
44810;SDS011;30526;52.184;4.476;2022-09-01T01:57:55;7.63;;;2.22;;
44810;SDS011;30526;52.184;4.476;2022-09-01T02:00:23;7.73;;;1.87;;
44810;SDS011;30526;52.184;4.476;2022-09-01T02:02:51;4.70;;;2.45;;
44810;SDS011;30526;52.184;4.476;2022-09-01T02:05:18;7.13;;;2.25;;
44810;SDS011;30526;52.184;4.476;2022-09-01T02:07:48;5.85;;;2.78;;
44810;SDS011;30526;52.184;4.476;2022-09-01T02:10:15;5.13;;;2.65;;
44810;SDS011;30526;52.184;4.476;2022-09-01T02:12:41;3.72;;;1.60;;
44810;SDS011;30526;52.184;4.476;2022-09-01T02:15:07;9.40;;;2.25;;
44810;SDS011;30526;52.184;4.476;2022-09-01T02:17:36;3.40;;;2.22;;
44810;SDS011;30526;52.184;4.476;2022-09-01T02:20:04;3.83;;;1.42;;
44810;SDS011;30526;52.184;4.476;2022-09-01T02:22:30;2.53;;;1.98;;
44810;SDS011;30526;52.184;4.476;2022-09-01T02:24:57;4.55;;;2.47;;
44810;SDS011;30526;52.184;4.476;2022-09-01T02:27:24;6.95;;;2.05;;
44810;SDS011;30526;52.184;4.476;2022-09-01T02:29:51;3.60;;;1.70;;
44810;SDS011;30526;52.184;4.476;2022-09-01T02:32:18;3.75;;;2.00;;
44810;SDS011;30526;52.184;4.476;2022-09-01T02:37:17;7.25;;;2.40;;
44810;SDS011;30526;52.184;4.476;2022-09-01T02:39:46;5.05;;;2.00;;
44810;SDS011;30526;52.184;4.476;2022-09-01T02:42:12;6.38;;;2.17;;
44810;SDS011;30526;52.184;4.476;2022-09-01T02:44:39;3.50;;;1.60;;
44810;SDS011;30526;52.184;4.476;2022-09-01T02:47:07;5.47;;;2.33;;
44810;SDS011;30526;52.184;4.476;2022-09-01T02:49:33;10.80;;;2.20;;
44810;SDS011;30526;52.184;4.476;2022-09-01T02:52:00;5.38;;;2.28;;
44810;SDS011;30526;52.184;4.476;2022-09-01T02:54:26;3.70;;;2.33;;
44810;SDS011;30526;52.184;4.476;2022-09-01T02:56:54;3.20;;;1.90;;
44810;SDS011;30526;52.184;4.476;2022-09-01T02:59:21;2.72;;;2.15;;
44810;SDS011;30526;52.184;4.476;2022-09-01T03:04:13;4.90;;;2.30;;
44810;SDS011;30526;52.184;4.476;2022-09-01T03:06:39;5.38;;;2.08;;
44810;SDS011;30526;52.184;4.476;2022-09-01T03:09:07;6.80;;;2.17;;
44810;SDS011;30526;52.184;4.476;2022-09-01T03:11:35;3.42;;;2.25;;
44810;SDS011;30526;52.184;4.476;2022-09-01T03:16:27;5.32;;;2.33;;
44810;SDS011;30526;52.184;4.476;2022-09-01T03:18:57;3.47;;;2.33;;
44810;SDS011;30526;52.184;4.476;2022-09-01T03:21:23;4.32;;;2.22;;
44810;SDS011;30526;52.184;4.476;2022-09-01T03:23:50;8.43;;;2.83;;
44810;SDS011;30526;52.184;4.476;2022-09-01T03:26:17;4.07;;;2.57;;
44810;SDS011;30526;52.184;4.476;2022-09-01T03:28:45;6.75;;;2.58;;
44810;SDS011;30526;52.184;4.476;2022-09-01T03:31:11;7.10;;;2.53;;
44810;SDS011;30526;52.184;4.476;2022-09-01T03:33:37;3.75;;;2.33;;
44810;SDS011;30526;52.184;4.476;2022-09-01T03:36:04;8.27;;;2.67;;
44810;SDS011;30526;52.184;4.476;2022-09-01T03:38:30;4.85;;;2.80;;
44810;SDS011;30526;52.184;4.476;2022-09-01T03:40:58;4.60;;;2.78;;
44810;SDS011;30526;52.184;4.476;2022-09-01T03:43:26;3.50;;;2.53;;
44810;SDS011;30526;52.184;4.476;2022-09-01T03:45:53;3.72;;;1.90;;
44810;SDS011;30526;52.184;4.476;2022-09-01T03:48:22;4.55;;;2.13;;
44810;SDS011;30526;52.184;4.476;2022-09-01T03:50:52;5.05;;;2.30;;
44810;SDS011;30526;52.184;4.476;2022-09-01T03:53:19;3.17;;;2.03;;
44810;SDS011;30526;52.184;4.476;2022-09-01T03:55:47;7.47;;;2.40;;
44810;SDS011;30526;52.184;4.476;2022-09-01T03:58:14;5.63;;;2.63;;
44810;SDS011;30526;52.184;4.476;2022-09-01T04:00:43;4.57;;;2.30;;
44810;SDS011;30526;52.184;4.476;2022-09-01T04:03:10;2.20;;;1.85;;
44810;SDS011;30526;52.184;4.476;2022-09-01T04:05:37;1.50;;;1.40;;
44810;SDS011;30526;52.184;4.476;2022-09-01T04:08:06;3.88;;;2.30;;
44810;SDS011;30526;52.184;4.476;2022-09-01T04:10:35;6.75;;;2.60;;
44810;SDS011;30526;52.184;4.476;2022-09-01T04:15:29;2.85;;;1.48;;
44810;SDS011;30526;52.184;4.476;2022-09-01T04:17:58;6.20;;;2.10;;
44810;SDS011;30526;52.184;4.476;2022-09-01T04:20:40;4.00;;;2.42;;
44810;SDS011;30526;52.184;4.476;2022-09-01T04:23:24;3.45;;;2.00;;
44810;SDS011;30526;52.184;4.476;2022-09-01T04:25:54;2.58;;;1.83;;
44810;SDS011;30526;52.184;4.476;2022-09-01T04:28:22;5.40;;;1.88;;
44810;SDS011;30526;52.184;4.476;2022-09-01T04:30:49;4.55;;;2.22;;
44810;SDS011;30526;52.184;4.476;2022-09-01T04:33:16;4.32;;;1.65;;
44810;SDS011;30526;52.184;4.476;2022-09-01T04:35:46;5.03;;;2.72;;
44810;SDS011;30526;52.184;4.476;2022-09-01T04:38:13;2.38;;;1.27;;
44810;SDS011;30526;52.184;4.476;2022-09-01T04:40:40;6.85;;;2.25;;
44810;SDS011;30526;52.184;4.476;2022-09-01T04:43:06;5.03;;;2.30;;
44810;SDS011;30526;52.184;4.476;2022-09-01T04:45:33;6.25;;;2.15;;
44810;SDS011;30526;52.184;4.476;2022-09-01T04:48:00;4.00;;;1.98;;
44810;SDS011;30526;52.184;4.476;2022-09-01T04:50:26;4.67;;;2.30;;
44810;SDS011;30526;52.184;4.476;2022-09-01T04:52:54;5.18;;;2.25;;
44810;SDS011;30526;52.184;4.476;2022-09-01T04:55:22;2.17;;;1.40;;
44810;SDS011;30526;52.184;4.476;2022-09-01T04:57:48;3.03;;;2.22;;
44810;SDS011;30526;52.184;4.476;2022-09-01T05:00:16;4.65;;;2.28;;
44810;SDS011;30526;52.184;4.476;2022-09-01T05:02:49;6.32;;;2.38;;
44810;SDS011;30526;52.184;4.476;2022-09-01T05:05:16;3.38;;;1.95;;
44810;SDS011;30526;52.184;4.476;2022-09-01T05:07:42;3.97;;;2.25;;
44810;SDS011;30526;52.184;4.476;2022-09-01T05:10:08;4.13;;;2.30;;
44810;SDS011;30526;52.184;4.476;2022-09-01T05:12:35;3.55;;;1.95;;
44810;SDS011;30526;52.184;4.476;2022-09-01T05:15:01;2.80;;;2.13;;
44810;SDS011;30526;52.184;4.476;2022-09-01T05:17:30;2.33;;;2.10;;
44810;SDS011;30526;52.184;4.476;2022-09-01T05:19:56;9.95;;;2.25;;
44810;SDS011;30526;52.184;4.476;2022-09-01T05:22:23;3.15;;;2.05;;
44810;SDS011;30526;52.184;4.476;2022-09-01T05:24:49;4.30;;;2.08;;
44810;SDS011;30526;52.184;4.476;2022-09-01T05:27:15;3.20;;;2.13;;
44810;SDS011;30526;52.184;4.476;2022-09-01T05:29:43;3.22;;;2.10;;
44810;SDS011;30526;52.184;4.476;2022-09-01T05:32:10;4.38;;;1.85;;
44810;SDS011;30526;52.184;4.476;2022-09-01T05:34:37;2.28;;;1.90;;
44810;SDS011;30526;52.184;4.476;2022-09-01T05:37:04;3.13;;;1.90;;
44810;SDS011;30526;52.184;4.476;2022-09-01T05:39:30;7.90;;;1.70;;
44810;SDS011;30526;52.184;4.476;2022-09-01T05:41:59;2.45;;;1.80;;
44810;SDS011;30526;52.184;4.476;2022-09-01T05:44:25;1.98;;;1.75;;
44810;SDS011;30526;52.184;4.476;2022-09-01T05:46:51;4.93;;;1.92;;
44810;SDS011;30526;52.184;4.476;2022-09-01T05:49:19;3.72;;;1.50;;
44810;SDS011;30526;52.184;4.476;2022-09-01T05:51:47;3.15;;;1.60;;
44810;SDS011;30526;52.184;4.476;2022-09-01T05:54:20;4.13;;;1.63;;
44810;SDS011;30526;52.184;4.476;2022-09-01T05:56:47;4.97;;;1.65;;
44810;SDS011;30526;52.184;4.476;2022-09-01T05:59:13;2.60;;;1.53;;
44810;SDS011;30526;52.184;4.476;2022-09-01T06:01:40;3.92;;;1.92;;
44810;SDS011;30526;52.184;4.476;2022-09-01T06:04:06;3.83;;;1.58;;
44810;SDS011;30526;52.184;4.476;2022-09-01T06:09:02;3.00;;;1.50;;
44810;SDS011;30526;52.184;4.476;2022-09-01T06:11:28;2.83;;;1.80;;
44810;SDS011;30526;52.184;4.476;2022-09-01T06:13:57;4.35;;;2.60;;
44810;SDS011;30526;52.184;4.476;2022-09-01T06:16:23;3.45;;;1.80;;
44810;SDS011;30526;52.184;4.476;2022-09-01T06:18:50;2.80;;;1.25;;
44810;SDS011;30526;52.184;4.476;2022-09-01T06:21:18;3.97;;;1.60;;
44810;SDS011;30526;52.184;4.476;2022-09-01T06:26:31;2.42;;;1.48;;
44810;SDS011;30526;52.184;4.476;2022-09-01T06:29:00;3.37;;;1.60;;
44810;SDS011;30526;52.184;4.476;2022-09-01T06:31:28;3.05;;;1.55;;
44810;SDS011;30526;52.184;4.476;2022-09-01T06:33:58;2.65;;;1.52;;
44810;SDS011;30526;52.184;4.476;2022-09-01T06:36:24;3.33;;;1.52;;
44810;SDS011;30526;52.184;4.476;2022-09-01T06:38:51;5.63;;;1.70;;
44810;SDS011;30526;52.184;4.476;2022-09-01T06:41:18;2.00;;;1.33;;
44810;SDS011;30526;52.184;4.476;2022-09-01T06:43:45;4.25;;;1.67;;
44810;SDS011;30526;52.184;4.476;2022-09-01T06:46:12;4.68;;;1.50;;
44810;SDS011;30526;52.184;4.476;2022-09-01T06:48:38;5.32;;;1.52;;
44810;SDS011;30526;52.184;4.476;2022-09-01T06:51:09;2.95;;;1.67;;
44810;SDS011;30526;52.184;4.476;2022-09-01T06:53:38;7.15;;;1.98;;
44810;SDS011;30526;52.184;4.476;2022-09-01T06:56:04;3.53;;;1.85;;
44810;SDS011;30526;52.184;4.476;2022-09-01T06:58:30;6.20;;;1.40;;
44810;SDS011;30526;52.184;4.476;2022-09-01T07:00:56;2.58;;;1.40;;
44810;SDS011;30526;52.184;4.476;2022-09-01T07:03:22;3.40;;;1.33;;
44810;SDS011;30526;52.184;4.476;2022-09-01T07:05:48;2.75;;;1.50;;
44810;SDS011;30526;52.184;4.476;2022-09-01T07:08:16;2.53;;;1.52;;
44810;SDS011;30526;52.184;4.476;2022-09-01T07:10:47;4.40;;;1.50;;
44810;SDS011;30526;52.184;4.476;2022-09-01T07:13:14;3.33;;;1.75;;
44810;SDS011;30526;52.184;4.476;2022-09-01T07:15:45;2.33;;;1.20;;
44810;SDS011;30526;52.184;4.476;2022-09-01T07:18:21;5.90;;;1.73;;
44810;SDS011;30526;52.184;4.476;2022-09-01T07:20:49;2.80;;;1.80;;
44810;SDS011;30526;52.184;4.476;2022-09-01T07:23:16;3.78;;;1.67;;
44810;SDS011;30526;52.184;4.476;2022-09-01T07:25:44;4.38;;;1.70;;
44810;SDS011;30526;52.184;4.476;2022-09-01T07:30:41;2.00;;;1.40;;
44810;SDS011;30526;52.184;4.476;2022-09-01T07:33:09;2.45;;;1.88;;
44810;SDS011;30526;52.184;4.476;2022-09-01T07:35:36;2.70;;;1.80;;
44810;SDS011;30526;52.184;4.476;2022-09-01T07:38:02;3.05;;;1.52;;
44810;SDS011;30526;52.184;4.476;2022-09-01T07:40:32;8.20;;;2.83;;
44810;SDS011;30526;52.184;4.476;2022-09-01T07:43:02;3.10;;;1.60;;
44810;SDS011;30526;52.184;4.476;2022-09-01T07:45:32;2.67;;;1.70;;
44810;SDS011;30526;52.184;4.476;2022-09-01T07:48:00;10.18;;;1.73;;
44810;SDS011;30526;52.184;4.476;2022-09-01T07:50:31;3.60;;;1.90;;
44810;SDS011;30526;52.184;4.476;2022-09-01T07:52:57;4.03;;;1.65;;
44810;SDS011;30526;52.184;4.476;2022-09-01T07:57:52;4.93;;;1.85;;
44810;SDS011;30526;52.184;4.476;2022-09-01T08:00:18;5.47;;;1.80;;
44810;SDS011;30526;52.184;4.476;2022-09-01T08:02:46;4.40;;;1.73;;
44810;SDS011;30526;52.184;4.476;2022-09-01T08:05:15;2.35;;;1.80;;
44810;SDS011;30526;52.184;4.476;2022-09-01T08:07:45;3.15;;;1.67;;
44810;SDS011;30526;52.184;4.476;2022-09-01T08:10:13;5.35;;;1.88;;
44810;SDS011;30526;52.184;4.476;2022-09-01T08:12:39;3.50;;;1.40;;
44810;SDS011;30526;52.184;4.476;2022-09-01T08:15:06;5.30;;;1.70;;
44810;SDS011;30526;52.184;4.476;2022-09-01T08:17:32;1.95;;;1.23;;
44810;SDS011;30526;52.184;4.476;2022-09-01T08:19:58;4.57;;;1.45;;
44810;SDS011;30526;52.184;4.476;2022-09-01T08:22:25;3.78;;;1.60;;
44810;SDS011;30526;52.184;4.476;2022-09-01T08:24:51;7.22;;;2.08;;
44810;SDS011;30526;52.184;4.476;2022-09-01T08:27:18;7.73;;;1.97;;
44810;SDS011;30526;52.184;4.476;2022-09-01T08:29:44;3.88;;;1.77;;
44810;SDS011;30526;52.184;4.476;2022-09-01T08:32:10;3.47;;;1.80;;
44810;SDS011;30526;52.184;4.476;2022-09-01T08:34:36;3.97;;;1.80;;
44810;SDS011;30526;52.184;4.476;2022-09-01T08:37:04;7.65;;;1.92;;
44810;SDS011;30526;52.184;4.476;2022-09-01T08:47:17;2.67;;;1.85;;
44810;SDS011;30526;52.184;4.476;2022-09-01T08:49:44;5.47;;;1.70;;
44810;SDS011;30526;52.184;4.476;2022-09-01T08:52:29;3.78;;;1.88;;
44810;SDS011;30526;52.184;4.476;2022-09-01T08:55:08;2.40;;;1.83;;
44810;SDS011;30526;52.184;4.476;2022-09-01T08:57:36;4.70;;;2.55;;
44810;SDS011;30526;52.184;4.476;2022-09-01T09:00:04;3.17;;;1.80;;
44810;SDS011;30526;52.184;4.476;2022-09-01T09:12:34;3.65;;;1.80;;
44810;SDS011;30526;52.184;4.476;2022-09-01T09:15:13;5.50;;;2.30;;
44810;SDS011;30526;52.184;4.476;2022-09-01T09:17:45;3.03;;;1.90;;
44810;SDS011;30526;52.184;4.476;2022-09-01T09:20:13;8.02;;;2.08;;
44810;SDS011;30526;52.184;4.476;2022-09-01T09:22:39;4.85;;;1.90;;
44810;SDS011;30526;52.184;4.476;2022-09-01T09:25:09;2.58;;;2.13;;
44810;SDS011;30526;52.184;4.476;2022-09-01T09:27:39;3.10;;;1.83;;
44810;SDS011;30526;52.184;4.476;2022-09-01T09:30:10;9.65;;;2.25;;
44810;SDS011;30526;52.184;4.476;2022-09-01T09:32:53;4.55;;;2.15;;
44810;SDS011;30526;52.184;4.476;2022-09-01T09:37:52;2.38;;;1.63;;
44810;SDS011;30526;52.184;4.476;2022-09-01T09:40:22;2.15;;;1.50;;
44810;SDS011;30526;52.184;4.476;2022-09-01T09:47:48;3.55;;;1.58;;
44810;SDS011;30526;52.184;4.476;2022-09-01T09:50:25;4.53;;;1.50;;
44810;SDS011;30526;52.184;4.476;2022-09-01T09:53:09;6.72;;;1.95;;
44810;SDS011;30526;52.184;4.476;2022-09-01T09:55:35;3.72;;;1.60;;
44810;SDS011;30526;52.184;4.476;2022-09-01T09:58:07;7.22;;;1.67;;
44810;SDS011;30526;52.184;4.476;2022-09-01T10:00:34;5.32;;;1.52;;
44810;SDS011;30526;52.184;4.476;2022-09-01T10:03:05;1.73;;;1.23;;
44810;SDS011;30526;52.184;4.476;2022-09-01T10:05:45;7.88;;;1.50;;
44810;SDS011;30526;52.184;4.476;2022-09-01T10:11:01;5.78;;;1.15;;
44810;SDS011;30526;52.184;4.476;2022-09-01T10:13:27;3.58;;;1.40;;
44810;SDS011;30526;52.184;4.476;2022-09-01T10:16:01;3.08;;;1.80;;
44810;SDS011;30526;52.184;4.476;2022-09-01T10:18:37;4.88;;;1.27;;
44810;SDS011;30526;52.184;4.476;2022-09-01T10:23:32;1.80;;;1.10;;
44810;SDS011;30526;52.184;4.476;2022-09-01T10:26:34;3.95;;;1.33;;
44810;SDS011;30526;52.184;4.476;2022-09-01T10:28:52;5.50;;;1.38;;
44810;SDS011;30526;52.184;4.476;2022-09-01T10:31:19;2.05;;;1.20;;
44810;SDS011;30526;52.184;4.476;2022-09-01T10:33:46;8.15;;;1.40;;
44810;SDS011;30526;52.184;4.476;2022-09-01T10:36:12;6.57;;;1.90;;
44810;SDS011;30526;52.184;4.476;2022-09-01T10:41:06;1.10;;;1.00;;
44810;SDS011;30526;52.184;4.476;2022-09-01T10:45:59;3.28;;;1.20;;
44810;SDS011;30526;52.184;4.476;2022-09-01T10:48:32;5.47;;;1.15;;
44810;SDS011;30526;52.184;4.476;2022-09-01T10:56:17;1.98;;;1.00;;
44810;SDS011;30526;52.184;4.476;2022-09-01T11:14:34;2.47;;;1.20;;
44810;SDS011;30526;52.184;4.476;2022-09-01T11:17:16;2.03;;;0.98;;
44810;SDS011;30526;52.184;4.476;2022-09-01T11:27:08;2.47;;;1.40;;
44810;SDS011;30526;52.184;4.476;2022-09-01T11:29:54;3.72;;;1.00;;
44810;SDS011;30526;52.184;4.476;2022-09-01T11:32:21;2.10;;;1.20;;
44810;SDS011;30526;52.184;4.476;2022-09-01T11:34:49;2.97;;;1.10;;
44810;SDS011;30526;52.184;4.476;2022-09-01T11:37:16;2.15;;;0.82;;
44810;SDS011;30526;52.184;4.476;2022-09-01T11:39:45;4.22;;;1.30;;
44810;SDS011;30526;52.184;4.476;2022-09-01T11:42:24;1.77;;;1.02;;
44810;SDS011;30526;52.184;4.476;2022-09-01T11:44:53;1.27;;;1.10;;
44810;SDS011;30526;52.184;4.476;2022-09-01T11:47:41;4.13;;;1.30;;
44810;SDS011;30526;52.184;4.476;2022-09-01T11:52:35;3.87;;;1.20;;
44810;SDS011;30526;52.184;4.476;2022-09-01T11:55:02;3.88;;;1.23;;
44810;SDS011;30526;52.184;4.476;2022-09-01T11:57:32;2.15;;;1.00;;
44810;SDS011;30526;52.184;4.476;2022-09-01T11:59:59;1.83;;;1.10;;
44810;SDS011;30526;52.184;4.476;2022-09-01T12:02:31;2.30;;;0.90;;
44810;SDS011;30526;52.184;4.476;2022-09-01T12:04:58;5.93;;;1.20;;
44810;SDS011;30526;52.184;4.476;2022-09-01T12:07:39;3.17;;;1.00;;
44810;SDS011;30526;52.184;4.476;2022-09-01T12:10:20;3.72;;;0.95;;
44810;SDS011;30526;52.184;4.476;2022-09-01T12:12:47;1.60;;;1.02;;
44810;SDS011;30526;52.184;4.476;2022-09-01T12:17:42;5.93;;;0.93;;
44810;SDS011;30526;52.184;4.476;2022-09-01T12:20:18;4.20;;;1.05;;
44810;SDS011;30526;52.184;4.476;2022-09-01T12:25:24;3.25;;;1.10;;
44810;SDS011;30526;52.184;4.476;2022-09-01T12:27:50;4.30;;;1.10;;
44810;SDS011;30526;52.184;4.476;2022-09-01T12:30:17;2.42;;;0.90;;
44810;SDS011;30526;52.184;4.476;2022-09-01T12:32:43;2.25;;;1.10;;
